Ruskin, Nebraska
Current Conditions -  °F | °C
As of 4:55 PM on Friday 28 Nov 2014 (Local Time) from KHJH Reporting Station
Clear Clear  
Wind Chill: 55°   Ceiling: Unl
Heat Index: 55°   Visibility: 10mi
Dew Point: 28°   Wind: 3mph
Humidity: 35%   Direction: 160°SSE
Pressure: 29.69"   Gusts: NA
Location:  40.14°N, 97.87°W
Report Text: KHJH 282255Z AUTO 16003KT 10SM CLR 13/M02 A2969 RMK AO2 T01291022
Loading
Personal Weather Stations






























Interactive Weather Map New forecast layout! Learn more

10-Day Weather Forecast

Advertisements
Track Severe Weather on mobile